sensor_id;sensor_type;location;lat;lon;timestamp;pressure;altitude;pressure_sealevel;temperature;humidity
10587;BME280;5341;47.606;7.576;2023-05-11T00:01:12;98698.56;;;18.08;51.08
10587;BME280;5341;47.606;7.576;2023-05-11T00:03:39;98695.84;;;18.08;51.08
10587;BME280;5341;47.606;7.576;2023-05-11T00:06:07;98693.16;;;18.08;51.08
10587;BME280;5341;47.606;7.576;2023-05-11T00:08:34;98698.56;;;18.08;51.12
10587;BME280;5341;47.606;7.576;2023-05-11T00:11:04;98687.16;;;18.06;51.15
10587;BME280;5341;47.606;7.576;2023-05-11T00:13:34;98693.38;;;18.07;51.16
10587;BME280;5341;47.606;7.576;2023-05-11T00:16:02;98686.31;;;18.06;51.21
10587;BME280;5341;47.606;7.576;2023-05-11T00:18:33;98681.94;;;18.05;51.31
10587;BME280;5341;47.606;7.576;2023-05-11T00:21:05;98684.44;;;18.06;51.43
10587;BME280;5341;47.606;7.576;2023-05-11T00:23:33;98678.41;;;18.04;51.24
10587;BME280;5341;47.606;7.576;2023-05-11T00:26:00;98681.94;;;18.05;51.50
10587;BME280;5341;47.606;7.576;2023-05-11T00:28:28;98675.94;;;18.03;51.31
10587;BME280;5341;47.606;7.576;2023-05-11T00:30:57;98678.66;;;18.03;51.32
10587;BME280;5341;47.606;7.576;2023-05-11T00:33:24;98668.06;;;18.01;51.25
10587;BME280;5341;47.606;7.576;2023-05-11T00:35:54;98668.28;;;18.00;51.27
10587;BME280;5341;47.606;7.576;2023-05-11T00:38:21;98672.66;;;18.01;51.29
10587;BME280;5341;47.606;7.576;2023-05-11T00:40:49;98668.53;;;17.98;51.13
10587;BME280;5341;47.606;7.576;2023-05-11T00:43:17;98660.66;;;17.97;51.25
10587;BME280;5341;47.606;7.576;2023-05-11T00:45:44;98663.34;;;17.97;51.25
10587;BME280;5341;47.606;7.576;2023-05-11T00:48:16;98662.78;;;17.95;51.30
10587;BME280;5341;47.606;7.576;2023-05-11T00:50:43;98662.78;;;17.95;51.29
10587;BME280;5341;47.606;7.576;2023-05-11T00:53:11;98660.06;;;17.95;51.37
10587;BME280;5341;47.606;7.576;2023-05-11T00:55:39;98663.00;;;17.93;51.29
10587;BME280;5341;47.606;7.576;2023-05-11T00:58:06;98653.44;;;17.91;51.41
10587;BME280;5341;47.606;7.576;2023-05-11T01:00:34;98654.50;;;17.90;51.17
10587;BME280;5341;47.606;7.576;2023-05-11T01:03:03;98660.16;;;17.88;51.41
10587;BME280;5341;47.606;7.576;2023-05-11T01:05:39;98656.63;;;17.88;51.41
10587;BME280;5341;47.606;7.576;2023-05-11T01:08:14;98660.63;;;17.85;51.21
10587;BME280;5341;47.606;7.576;2023-05-11T01:10:47;98658.97;;;17.84;51.59
10587;BME280;5341;47.606;7.576;2023-05-11T01:13:30;98662.75;;;17.83;51.49
10587;BME280;5341;47.606;7.576;2023-05-11T01:16:01;98667.31;;;17.82;51.60
10587;BME280;5341;47.606;7.576;2023-05-11T01:18:33;98656.75;;;17.81;51.37
10587;BME280;5341;47.606;7.576;2023-05-11T01:21:10;98660.72;;;17.78;51.00
10587;BME280;5341;47.606;7.576;2023-05-11T01:23:51;98663.66;;;17.77;51.33
10587;BME280;5341;47.606;7.576;2023-05-11T01:26:38;98660.13;;;17.76;51.56
10587;BME280;5341;47.606;7.576;2023-05-11T01:29:35;98656.81;;;17.74;51.34
10587;BME280;5341;47.606;7.576;2023-05-11T01:32:11;98664.13;;;17.74;51.42
10587;BME280;5341;47.606;7.576;2023-05-11T01:34:42;98660.59;;;17.73;51.63
10587;BME280;5341;47.606;7.576;2023-05-11T01:37:15;98670.59;;;17.73;51.52
10587;BME280;5341;47.606;7.576;2023-05-11T01:39:49;98666.22;;;17.72;51.64
10587;BME280;5341;47.606;7.576;2023-05-11T01:42:21;98663.53;;;17.72;51.47
10587;BME280;5341;47.606;7.576;2023-05-11T01:44:52;98667.28;;;17.71;51.69
10587;BME280;5341;47.606;7.576;2023-05-11T01:47:25;98670.00;;;17.71;51.67
10587;BME280;5341;47.606;7.576;2023-05-11T01:49:55;98663.75;;;17.70;51.72
10587;BME280;5341;47.606;7.576;2023-05-11T01:52:24;98662.94;;;17.70;51.69
10587;BME280;5341;47.606;7.576;2023-05-11T01:54:53;98665.66;;;17.70;51.81
10587;BME280;5341;47.606;7.576;2023-05-11T01:57:22;98671.22;;;17.68;51.64
10587;BME280;5341;47.606;7.576;2023-05-11T01:59:51;98665.81;;;17.68;51.55
10587;BME280;5341;47.606;7.576;2023-05-11T02:02:21;98671.22;;;17.68;51.95
10587;BME280;5341;47.606;7.576;2023-05-11T02:04:51;98675.81;;;17.68;51.72
10587;BME280;5341;47.606;7.576;2023-05-11T02:07:21;98671.47;;;17.67;51.59
10587;BME280;5341;47.606;7.576;2023-05-11T02:09:50;98669.00;;;17.65;51.68
10587;BME280;5341;47.606;7.576;2023-05-11T02:12:19;98674.88;;;17.62;51.72
10587;BME280;5341;47.606;7.576;2023-05-11T02:14:50;98665.09;;;17.61;51.75
10587;BME280;5341;47.606;7.576;2023-05-11T02:17:22;98669.09;;;17.58;52.03
10587;BME280;5341;47.606;7.576;2023-05-11T02:19:50;98669.91;;;17.59;51.92
10587;BME280;5341;47.606;7.576;2023-05-11T02:22:18;98667.44;;;17.57;52.09
10587;BME280;5341;47.606;7.576;2023-05-11T02:24:48;98677.44;;;17.57;51.81
10587;BME280;5341;47.606;7.576;2023-05-11T02:27:16;98673.88;;;17.56;51.91
10587;BME280;5341;47.606;7.576;2023-05-11T02:29:44;98673.28;;;17.54;51.87
10587;BME280;5341;47.606;7.576;2023-05-11T02:32:16;98675.41;;;17.52;51.68
10587;BME280;5341;47.606;7.576;2023-05-11T02:34:59;98674.59;;;17.52;52.02
10587;BME280;5341;47.606;7.576;2023-05-11T02:37:29;98663.19;;;17.50;51.92
10587;BME280;5341;47.606;7.576;2023-05-11T02:40:00;98669.63;;;17.49;52.08
10587;BME280;5341;47.606;7.576;2023-05-11T02:42:35;98663.41;;;17.48;52.18
10587;BME280;5341;47.606;7.576;2023-05-11T02:45:07;98670.94;;;17.46;52.14
10587;BME280;5341;47.606;7.576;2023-05-11T02:47:39;98665.97;;;17.43;52.33
10587;BME280;5341;47.606;7.576;2023-05-11T02:50:12;98664.53;;;17.41;52.43
10587;BME280;5341;47.606;7.576;2023-05-11T02:52:44;98666.66;;;17.39;52.33
10587;BME280;5341;47.606;7.576;2023-05-11T02:55:15;98662.31;;;17.38;52.53
10587;BME280;5341;47.606;7.576;2023-05-11T02:57:43;98662.53;;;17.36;52.43
10587;BME280;5341;47.606;7.576;2023-05-11T03:00:12;98659.84;;;17.36;52.39
10587;BME280;5341;47.606;7.576;2023-05-11T03:02:42;98663.59;;;17.35;52.57
10587;BME280;5341;47.606;7.576;2023-05-11T03:05:11;98654.66;;;17.35;52.62
10587;BME280;5341;47.606;7.576;2023-05-11T03:07:39;98662.78;;;17.35;52.63
10587;BME280;5341;47.606;7.576;2023-05-11T03:10:08;98656.78;;;17.33;52.66
10587;BME280;5341;47.606;7.576;2023-05-11T03:12:39;98655.91;;;17.32;52.72
10587;BME280;5341;47.606;7.576;2023-05-11T03:15:07;98655.31;;;17.30;52.53
10587;BME280;5341;47.606;7.576;2023-05-11T03:17:39;98656.38;;;17.29;52.83
10587;BME280;5341;47.606;7.576;2023-05-11T03:20:12;98651.22;;;17.27;52.72
10587;BME280;5341;47.606;7.576;2023-05-11T03:22:41;98639.56;;;17.27;52.70
10587;BME280;5341;47.606;7.576;2023-05-11T03:25:10;98641.44;;;17.26;52.84
10587;BME280;5341;47.606;7.576;2023-05-11T03:27:40;98638.16;;;17.24;52.71
10587;BME280;5341;47.606;7.576;2023-05-11T03:30:11;98649.78;;;17.25;52.98
10587;BME280;5341;47.606;7.576;2023-05-11T03:32:43;98641.91;;;17.23;52.84
10587;BME280;5341;47.606;7.576;2023-05-11T03:35:12;98641.31;;;17.21;52.84
10587;BME280;5341;47.606;7.576;2023-05-11T03:37:40;98641.31;;;17.21;52.80
10587;BME280;5341;47.606;7.576;2023-05-11T03:40:11;98639.69;;;17.20;52.76
10587;BME280;5341;47.606;7.576;2023-05-11T03:42:48;98640.69;;;17.19;53.18
10587;BME280;5341;47.606;7.576;2023-05-11T03:45:17;98637.16;;;17.19;52.97
10587;BME280;5341;47.606;7.576;2023-05-11T03:47:47;98633.66;;;17.18;53.12
10587;BME280;5341;47.606;7.576;2023-05-11T03:50:19;98636.34;;;17.18;53.06
10587;BME280;5341;47.606;7.576;2023-05-11T03:52:48;98630.34;;;17.16;52.95
10587;BME280;5341;47.606;7.576;2023-05-11T03:55:16;98628.72;;;17.15;53.03
10587;BME280;5341;47.606;7.576;2023-05-11T03:57:43;98628.94;;;17.14;53.29
10587;BME280;5341;47.606;7.576;2023-05-11T04:00:12;98635.41;;;17.13;53.30
10587;BME280;5341;47.606;7.576;2023-05-11T04:02:43;98637.28;;;17.12;53.03
10587;BME280;5341;47.606;7.576;2023-05-11T04:05:12;98636.44;;;17.12;53.36
10587;BME280;5341;47.606;7.576;2023-05-11T04:07:44;98645.38;;;17.12;53.45
10587;BME280;5341;47.606;7.576;2023-05-11T04:10:11;98629.16;;;17.12;53.27
10587;BME280;5341;47.606;7.576;2023-05-11T04:12:38;98631.06;;;17.12;53.39
10587;BME280;5341;47.606;7.576;2023-05-11T04:15:07;98628.34;;;17.12;53.47
10587;BME280;5341;47.606;7.576;2023-05-11T04:17:34;98627.53;;;17.11;53.18
10587;BME280;5341;47.606;7.576;2023-05-11T04:20:01;98634.81;;;17.11;53.57
10587;BME280;5341;47.606;7.576;2023-05-11T04:22:29;98626.69;;;17.11;53.41
10587;BME280;5341;47.606;7.576;2023-05-11T04:24:57;98633.97;;;17.10;53.65
10587;BME280;5341;47.606;7.576;2023-05-11T04:27:25;98634.81;;;17.11;53.42
10587;BME280;5341;47.606;7.576;2023-05-11T04:29:52;98629.41;;;17.11;53.43
10587;BME280;5341;47.606;7.576;2023-05-11T04:32:19;98629.63;;;17.09;53.43
10587;BME280;5341;47.606;7.576;2023-05-11T04:34:47;98636.91;;;17.09;53.79
10587;BME280;5341;47.606;7.576;2023-05-11T04:37:18;98625.28;;;17.08;53.50
10587;BME280;5341;47.606;7.576;2023-05-11T04:39:46;98630.88;;;17.07;53.46
10587;BME280;5341;47.606;7.576;2023-05-11T04:42:15;98635.22;;;17.08;53.66
10587;BME280;5341;47.606;7.576;2023-05-11T04:44:47;98634.63;;;17.06;53.51
10587;BME280;5341;47.606;7.576;2023-05-11T04:47:17;98633.59;;;17.07;53.47
10587;BME280;5341;47.606;7.576;2023-05-11T04:49:45;98640.88;;;17.06;53.87
10587;BME280;5341;47.606;7.576;2023-05-11T04:52:13;98636.28;;;17.07;53.47
10587;BME280;5341;47.606;7.576;2023-05-11T04:54:44;98638.78;;;17.08;53.54
10587;BME280;5341;47.606;7.576;2023-05-11T04:57:11;98643.34;;;17.08;53.92
10587;BME280;5341;47.606;7.576;2023-05-11T04:59:40;98634.22;;;17.09;54.03
10587;BME280;5341;47.606;7.576;2023-05-11T05:02:07;98637.75;;;17.09;53.69
10587;BME280;5341;47.606;7.576;2023-05-11T05:04:34;98637.75;;;17.09;53.93
10587;BME280;5341;47.606;7.576;2023-05-11T05:07:02;98633.97;;;17.10;53.71
10587;BME280;5341;47.606;7.576;2023-05-11T05:09:30;98647.72;;;17.09;53.80
10587;BME280;5341;47.606;7.576;2023-05-11T05:11:57;98643.34;;;17.08;53.99
10587;BME280;5341;47.606;7.576;2023-05-11T05:14:24;98648.16;;;17.06;53.69
10587;BME280;5341;47.606;7.576;2023-05-11T05:16:54;98650.84;;;17.06;53.82
10587;BME280;5341;47.606;7.576;2023-05-11T05:19:21;98659.78;;;17.06;54.00
10587;BME280;5341;47.606;7.576;2023-05-11T05:21:50;98653.56;;;17.06;54.16
10587;BME280;5341;47.606;7.576;2023-05-11T05:24:17;98657.31;;;17.05;54.10
10587;BME280;5341;47.606;7.576;2023-05-11T05:26:44;98653.56;;;17.06;54.31
10587;BME280;5341;47.606;7.576;2023-05-11T05:29:12;98655.66;;;17.04;54.22
10587;BME280;5341;47.606;7.576;2023-05-11T05:31:40;98647.56;;;17.04;54.13
10587;BME280;5341;47.606;7.576;2023-05-11T05:34:09;98662.72;;;17.05;54.39
10587;BME280;5341;47.606;7.576;2023-05-11T05:36:37;98652.97;;;17.04;54.07
10587;BME280;5341;47.606;7.576;2023-05-11T05:39:04;98652.13;;;17.03;54.04
10587;BME280;5341;47.606;7.576;2023-05-11T05:41:34;98647.56;;;17.04;54.31
10587;BME280;5341;47.606;7.576;2023-05-11T05:44:05;98649.22;;;17.05;54.19
10587;BME280;5341;47.606;7.576;2023-05-11T05:46:32;98652.72;;;17.05;54.36
10587;BME280;5341;47.606;7.576;2023-05-11T05:49:00;98651.91;;;17.05;54.29
10587;BME280;5341;47.606;7.576;2023-05-11T05:51:29;98644.41;;;17.07;54.38
10587;BME280;5341;47.606;7.576;2023-05-11T05:53:57;98653.13;;;17.09;54.66
10587;BME280;5341;47.606;7.576;2023-05-11T05:56:25;98649.13;;;17.11;54.35
10587;BME280;5341;47.606;7.576;2023-05-11T05:58:52;98650.78;;;17.12;54.87
10587;BME280;5341;47.606;7.576;2023-05-11T06:01:20;98650.56;;;17.14;54.44
10587;BME280;5341;47.606;7.576;2023-05-11T06:03:48;98648.91;;;17.13;54.55
10587;BME280;5341;47.606;7.576;2023-05-11T06:06:16;98653.50;;;17.12;54.66
10587;BME280;5341;47.606;7.576;2023-05-11T06:08:45;98657.59;;;17.15;54.66
10587;BME280;5341;47.606;7.576;2023-05-11T06:11:12;98654.91;;;17.15;54.63
10587;BME280;5341;47.606;7.576;2023-05-11T06:13:40;98657.97;;;17.18;54.49
10587;BME280;5341;47.606;7.576;2023-05-11T06:16:08;98654.84;;;17.21;54.69
10587;BME280;5341;47.606;7.576;2023-05-11T06:18:36;98659.53;;;17.26;54.55
10587;BME280;5341;47.606;7.576;2023-05-11T06:21:05;98659.09;;;17.29;54.97
10587;BME280;5341;47.606;7.576;2023-05-11T06:23:34;98657.78;;;17.32;54.69
10587;BME280;5341;47.606;7.576;2023-05-11T06:26:03;98654.06;;;17.33;54.81
10587;BME280;5341;47.606;7.576;2023-05-11T06:28:32;98651.72;;;17.36;54.56
10587;BME280;5341;47.606;7.576;2023-05-11T06:31:02;98645.84;;;17.39;54.89
10587;BME280;5341;47.606;7.576;2023-05-11T06:33:33;98649.38;;;17.40;54.62
10587;BME280;5341;47.606;7.576;2023-05-11T06:36:04;98654.56;;;17.41;54.89
10587;BME280;5341;47.606;7.576;2023-05-11T06:38:31;98642.69;;;17.42;54.76
10587;BME280;5341;47.606;7.576;2023-05-11T06:40:59;98643.75;;;17.41;54.88
10587;BME280;5341;47.606;7.576;2023-05-11T06:43:27;98649.16;;;17.41;54.64
10587;BME280;5341;47.606;7.576;2023-05-11T06:45:55;98644.13;;;17.45;54.91
10587;BME280;5341;47.606;7.576;2023-05-11T06:48:22;98640.97;;;17.48;54.70
10587;BME280;5341;47.606;7.576;2023-05-11T06:50:50;98647.19;;;17.48;54.73
10587;BME280;5341;47.606;7.576;2023-05-11T06:53:18;98639.66;;;17.50;54.76
10587;BME280;5341;47.606;7.576;2023-05-11T06:55:45;98636.72;;;17.52;54.65
10587;BME280;5341;47.606;7.576;2023-05-11T06:58:13;98634.38;;;17.55;55.07
10587;BME280;5341;47.606;7.576;2023-05-11T07:00:43;98633.13;;;17.58;55.18
10587;BME280;5341;47.606;7.576;2023-05-11T07:03:10;98640.75;;;17.61;55.24
10587;BME280;5341;47.606;7.576;2023-05-11T07:05:37;98640.06;;;17.66;55.01
10587;BME280;5341;47.606;7.576;2023-05-11T07:08:05;98642.34;;;17.69;55.25
10587;BME280;5341;47.606;7.576;2023-05-11T07:10:33;98637.31;;;17.72;55.17
10587;BME280;5341;47.606;7.576;2023-05-11T07:13:00;98640.38;;;17.76;55.18
10587;BME280;5341;47.606;7.576;2023-05-11T07:15:27;98641.53;;;17.80;54.92
10587;BME280;5341;47.606;7.576;2023-05-11T07:17:56;98641.34;;;17.81;55.21
10587;BME280;5341;47.606;7.576;2023-05-11T07:20:25;98637.81;;;17.81;54.68
10587;BME280;5341;47.606;7.576;2023-05-11T07:22:55;98637.34;;;17.84;54.86
10587;BME280;5341;47.606;7.576;2023-05-11T07:25:24;98643.09;;;17.88;54.87
10587;BME280;5341;47.606;7.576;2023-05-11T07:27:51;98646.78;;;17.93;55.04
10587;BME280;5341;47.606;7.576;2023-05-11T07:30:18;98634.41;;;17.97;54.68
10587;BME280;5341;47.606;7.576;2023-05-11T07:32:45;98634.53;;;18.02;54.77
10587;BME280;5341;47.606;7.576;2023-05-11T07:35:14;98634.91;;;18.06;54.85
10587;BME280;5341;47.606;7.576;2023-05-11T07:37:41;98633.59;;;18.08;54.24
10587;BME280;5341;47.606;7.576;2023-05-11T07:40:09;98643.13;;;18.11;54.45
10587;BME280;5341;47.606;7.576;2023-05-11T07:42:37;98639.94;;;18.14;55.10
10587;BME280;5341;47.606;7.576;2023-05-11T07:45:05;98634.91;;;18.18;54.46
10587;BME280;5341;47.606;7.576;2023-05-11T07:47:32;98637.72;;;18.23;55.01
10587;BME280;5341;47.606;7.576;2023-05-11T07:49:59;98639.97;;;18.26;54.04
10587;BME280;5341;47.606;7.576;2023-05-11T07:52:28;98629.97;;;18.26;53.40
10587;BME280;5341;47.606;7.576;2023-05-11T07:54:55;98630.44;;;18.23;53.11
10587;BME280;5341;47.606;7.576;2023-05-11T07:57:23;98634.94;;;18.29;53.87
10587;BME280;5341;47.606;7.576;2023-05-11T07:59:50;98631.50;;;18.34;53.43
10587;BME280;5341;47.606;7.576;2023-05-11T08:02:17;98632.19;;;18.41;52.87
10587;BME280;5341;47.606;7.576;2023-05-11T08:04:45;98625.59;;;18.49;53.30
10587;BME280;5341;47.606;7.576;2023-05-11T08:07:12;98627.13;;;18.56;53.63
10587;BME280;5341;47.606;7.576;2023-05-11T08:09:41;98632.41;;;18.63;53.72
10587;BME280;5341;47.606;7.576;2023-05-11T08:12:09;98629.50;;;18.64;52.98
10587;BME280;5341;47.606;7.576;2023-05-11T08:14:36;98634.09;;;18.64;52.18
10587;BME280;5341;47.606;7.576;2023-05-11T08:17:03;98626.19;;;18.62;52.45
10587;BME280;5341;47.606;7.576;2023-05-11T08:19:31;98624.28;;;18.63;52.25
10587;BME280;5341;47.606;7.576;2023-05-11T08:21:59;98624.09;;;18.64;51.94
10587;BME280;5341;47.606;7.576;2023-05-11T08:24:26;98615.75;;;18.66;51.54
10587;BME280;5341;47.606;7.576;2023-05-11T08:26:57;98615.50;;;18.67;52.38
10587;BME280;5341;47.606;7.576;2023-05-11T08:29:24;98620.09;;;18.67;51.94
10587;BME280;5341;47.606;7.576;2023-05-11T08:31:52;98611.72;;;18.68;52.59
10587;BME280;5341;47.606;7.576;2023-05-11T08:34:19;98621.16;;;18.66;52.30
10587;BME280;5341;47.606;7.576;2023-05-11T08:36:49;98619.28;;;18.66;52.59
10587;BME280;5341;47.606;7.576;2023-05-11T08:39:17;98624.53;;;18.61;51.51
10587;BME280;5341;47.606;7.576;2023-05-11T08:41:47;98619.25;;;18.55;52.06
10587;BME280;5341;47.606;7.576;2023-05-11T08:44:17;98611.25;;;18.48;52.02
10587;BME280;5341;47.606;7.576;2023-05-11T08:46:47;98618.78;;;18.46;52.35
10587;BME280;5341;47.606;7.576;2023-05-11T08:49:15;98618.78;;;18.46;52.32
10587;BME280;5341;47.606;7.576;2023-05-11T08:51:42;98616.06;;;18.46;52.16
10587;BME280;5341;47.606;7.576;2023-05-11T08:54:10;98622.06;;;18.48;51.99
10587;BME280;5341;47.606;7.576;2023-05-11T08:56:40;98609.84;;;18.45;52.49
10587;BME280;5341;47.606;7.576;2023-05-11T08:59:07;98624.19;;;18.46;52.09
10587;BME280;5341;47.606;7.576;2023-05-11T09:01:40;98611.13;;;18.43;52.21
10587;BME280;5341;47.606;7.576;2023-05-11T09:04:08;98611.38;;;18.41;51.99
10587;BME280;5341;47.606;7.576;2023-05-11T09:06:36;98621.34;;;18.41;51.84
10587;BME280;5341;47.606;7.576;2023-05-11T09:09:05;98617.81;;;18.40;52.09
10587;BME280;5341;47.606;7.576;2023-05-11T09:11:32;98619.72;;;18.40;52.02
10587;BME280;5341;47.606;7.576;2023-05-11T09:14:00;98621.59;;;18.39;52.02
10587;BME280;5341;47.606;7.576;2023-05-11T09:16:28;98618.66;;;18.41;52.26
10587;BME280;5341;47.606;7.576;2023-05-11T09:18:59;98626.78;;;18.41;52.30
10587;BME280;5341;47.606;7.576;2023-05-11T09:21:26;98635.97;;;18.40;52.31
10587;BME280;5341;47.606;7.576;2023-05-11T09:23:56;98631.03;;;18.25;53.12
10587;BME280;5341;47.606;7.576;2023-05-11T09:26:26;98621.59;;;18.16;53.32
10587;BME280;5341;47.606;7.576;2023-05-11T09:28:56;98618.06;;;18.15;53.51
10587;BME280;5341;47.606;7.576;2023-05-11T09:31:34;98620.53;;;18.17;53.95
10587;BME280;5341;47.606;7.576;2023-05-11T09:34:12;98614.28;;;18.16;54.17
10587;BME280;5341;47.606;7.576;2023-05-11T09:36:40;98619.13;;;18.14;54.12
10587;BME280;5341;47.606;7.576;2023-05-11T09:39:08;98616.31;;;18.09;54.30
10587;BME280;5341;47.606;7.576;2023-05-11T09:41:35;98615.97;;;18.06;54.43
10587;BME280;5341;47.606;7.576;2023-05-11T09:44:04;98615.13;;;18.05;54.67
10587;BME280;5341;47.606;7.576;2023-05-11T09:46:33;98607.03;;;18.05;54.44
10587;BME280;5341;47.606;7.576;2023-05-11T09:49:02;98600.75;;;18.05;54.61
10587;BME280;5341;47.606;7.576;2023-05-11T09:51:32;98593.50;;;18.05;54.66
10587;BME280;5341;47.606;7.576;2023-05-11T09:54:01;98597.03;;;18.06;54.76
10587;BME280;5341;47.606;7.576;2023-05-11T09:56:43;98597.38;;;18.09;55.08
10587;BME280;5341;47.606;7.576;2023-05-11T09:59:11;98597.94;;;18.11;55.08
10587;BME280;5341;47.606;7.576;2023-05-11T10:01:39;98593.94;;;18.14;55.03
10587;BME280;5341;47.606;7.576;2023-05-11T10:04:06;98591.63;;;18.18;55.17
10587;BME280;5341;47.606;7.576;2023-05-11T10:06:47;98590.66;;;18.24;55.35
10587;BME280;5341;47.606;7.576;2023-05-11T10:09:16;98592.66;;;18.28;55.51
10587;BME280;5341;47.606;7.576;2023-05-11T10:11:45;98587.13;;;18.35;56.43
10587;BME280;5341;47.606;7.576;2023-05-11T10:14:13;98584.50;;;18.40;55.83
10587;BME280;5341;47.606;7.576;2023-05-11T10:16:42;98576.75;;;18.43;55.08
10587;BME280;5341;47.606;7.576;2023-05-11T10:19:10;98581.13;;;18.44;55.02
10587;BME280;5341;47.606;7.576;2023-05-11T10:21:38;98586.06;;;18.48;55.23
10587;BME280;5341;47.606;7.576;2023-05-11T10:24:11;98583.09;;;18.49;54.97
10587;BME280;5341;47.606;7.576;2023-05-11T10:26:39;98582.84;;;18.51;55.03
10587;BME280;5341;47.606;7.576;2023-05-11T10:29:08;98582.41;;;18.54;55.37
10587;BME280;5341;47.606;7.576;2023-05-11T10:31:36;98582.97;;;18.56;56.02
10587;BME280;5341;47.606;7.576;2023-05-11T10:34:03;98581.44;;;18.60;56.30
10587;BME280;5341;47.606;7.576;2023-05-11T10:36:32;98574.72;;;18.62;56.50
10587;BME280;5341;47.606;7.576;2023-05-11T10:39:00;98574.50;;;18.64;56.01
10587;BME280;5341;47.606;7.576;2023-05-11T10:41:50;98573.22;;;18.66;55.94
10587;BME280;5341;47.606;7.576;2023-05-11T10:47:37;98562.97;;;18.68;56.01
10587;BME280;5341;47.606;7.576;2023-05-11T10:50:24;98564.63;;;18.69;56.17
10587;BME280;5341;47.606;7.576;2023-05-11T10:53:06;98553.53;;;18.71;56.18
10587;BME280;5341;47.606;7.576;2023-05-11T10:55:49;98554.94;;;18.73;56.42
10587;BME280;5341;47.606;7.576;2023-05-11T10:58:34;98545.75;;;18.74;56.04
10587;BME280;5341;47.606;7.576;2023-05-11T11:01:32;98549.84;;;18.77;56.25
10587;BME280;5341;47.606;7.576;2023-05-11T11:04:03;98546.09;;;18.78;55.96
10587;BME280;5341;47.606;7.576;2023-05-11T11:06:32;98541.50;;;18.79;55.84
10587;BME280;5341;47.606;7.576;2023-05-11T11:09:01;98540.19;;;18.81;55.66
10587;BME280;5341;47.606;7.576;2023-05-11T11:11:30;98547.03;;;18.84;56.05
10587;BME280;5341;47.606;7.576;2023-05-11T11:14:00;98536.75;;;18.86;55.93
10587;BME280;5341;47.606;7.576;2023-05-11T11:16:31;98543.00;;;18.86;55.90
10587;BME280;5341;47.606;7.576;2023-05-11T11:19:36;98549.00;;;18.88;55.97
10587;BME280;5341;47.606;7.576;2023-05-11T11:22:04;98534.03;;;18.86;55.91
10587;BME280;5341;47.606;7.576;2023-05-11T11:24:42;98537.56;;;18.86;55.99
10587;BME280;5341;47.606;7.576;2023-05-11T11:27:10;98534.03;;;18.86;56.16
10587;BME280;5341;47.606;7.576;2023-05-11T11:29:39;98533.47;;;18.84;56.69
10587;BME280;5341;47.606;7.576;2023-05-11T11:32:25;98528.63;;;18.86;56.16
10587;BME280;5341;47.606;7.576;2023-05-11T11:34:56;98527.00;;;18.85;56.27
10587;BME280;5341;47.606;7.576;2023-05-11T11:37:23;98527.56;;;18.87;56.21
10587;BME280;5341;47.606;7.576;2023-05-11T11:39:53;98534.88;;;18.86;56.19
10587;BME280;5341;47.606;7.576;2023-05-11T11:42:35;98525.00;;;18.80;56.46
10587;BME280;5341;47.606;7.576;2023-05-11T11:45:30;98522.19;;;18.75;56.54
10587;BME280;5341;47.606;7.576;2023-05-11T11:48:14;98524.31;;;18.73;56.54
10587;BME280;5341;47.606;7.576;2023-05-11T11:50:45;98521.28;;;18.69;57.09
10587;BME280;5341;47.606;7.576;2023-05-11T11:56:41;98518.31;;;18.71;57.34
10587;BME280;5341;47.606;7.576;2023-05-11T11:59:15;98516.44;;;18.71;57.64
10587;BME280;5341;47.606;7.576;2023-05-11T12:01:50;98508.19;;;18.78;58.81
10587;BME280;5341;47.606;7.576;2023-05-11T12:04:31;98508.47;;;18.93;59.51
10587;BME280;5341;47.606;7.576;2023-05-11T12:07:06;98511.13;;;19.05;58.53
10587;BME280;5341;47.606;7.576;2023-05-11T12:09:35;98509.66;;;19.14;58.34
10587;BME280;5341;47.606;7.576;2023-05-11T12:12:05;98507.13;;;19.24;57.74
10587;BME280;5341;47.606;7.576;2023-05-11T12:14:33;98506.72;;;19.32;57.74
10587;BME280;5341;47.606;7.576;2023-05-11T12:17:04;98510.19;;;19.45;57.63
10587;BME280;5341;47.606;7.576;2023-05-11T12:19:34;98508.97;;;19.52;56.87
10587;BME280;5341;47.606;7.576;2023-05-11T12:22:02;98506.09;;;19.59;57.20
10587;BME280;5341;47.606;7.576;2023-05-11T12:24:29;98512.72;;;19.63;56.54
10587;BME280;5341;47.606;7.576;2023-05-11T12:26:56;98516.31;;;19.69;56.47
10587;BME280;5341;47.606;7.576;2023-05-11T12:29:24;98513.03;;;19.67;56.12
10587;BME280;5341;47.606;7.576;2023-05-11T12:31:52;98512.19;;;19.83;57.21
10587;BME280;5341;47.606;7.576;2023-05-11T12:34:22;98509.22;;;20.01;55.03
10587;BME280;5341;47.606;7.576;2023-05-11T12:36:50;98510.09;;;20.07;54.29
10587;BME280;5341;47.606;7.576;2023-05-11T12:39:19;98511.56;;;20.14;54.72
10587;BME280;5341;47.606;7.576;2023-05-11T12:41:48;98503.88;;;20.28;53.65
10587;BME280;5341;47.606;7.576;2023-05-11T12:44:16;98498.94;;;20.42;52.83
10587;BME280;5341;47.606;7.576;2023-05-11T12:46:45;98503.47;;;20.58;52.91
10587;BME280;5341;47.606;7.576;2023-05-11T12:49:15;98498.84;;;20.59;52.40
10587;BME280;5341;47.606;7.576;2023-05-11T12:51:59;98490.91;;;20.52;52.03
10587;BME280;5341;47.606;7.576;2023-05-11T12:54:29;98495.78;;;20.50;52.27
10587;BME280;5341;47.606;7.576;2023-05-11T12:56:57;98485.75;;;20.51;51.88
10587;BME280;5341;47.606;7.576;2023-05-11T12:59:26;98481.88;;;20.46;51.70
10587;BME280;5341;47.606;7.576;2023-05-11T13:01:54;98485.34;;;20.42;52.05
10587;BME280;5341;47.606;7.576;2023-05-11T13:04:28;98481.22;;;20.39;52.24
10587;BME280;5341;47.606;7.576;2023-05-11T13:06:57;98488.47;;;20.34;51.90
10587;BME280;5341;47.606;7.576;2023-05-11T13:09:25;98488.00;;;20.20;51.16
10587;BME280;5341;47.606;7.576;2023-05-11T13:12:12;98503.03;;;20.06;52.35
10587;BME280;5341;47.606;7.576;2023-05-11T13:14:42;98499.59;;;19.94;52.37
10587;BME280;5341;47.606;7.576;2023-05-11T13:17:10;98491.03;;;19.85;52.14
10587;BME280;5341;47.606;7.576;2023-05-11T13:19:38;98489.19;;;19.69;52.49
10587;BME280;5341;47.606;7.576;2023-05-11T13:22:10;98491.81;;;19.64;52.88
10587;BME280;5341;47.606;7.576;2023-05-11T13:24:37;98490.41;;;19.61;52.85
10587;BME280;5341;47.606;7.576;2023-05-11T13:27:04;98493.38;;;19.59;52.95
10587;BME280;5341;47.606;7.576;2023-05-11T13:29:32;98487.41;;;19.46;52.95
10587;BME280;5341;47.606;7.576;2023-05-11T13:31:59;98480.28;;;19.40;53.38